x

9076027 - West Neebish, Mi (wnem4) Weather Station

2:18pm - Fri 26th May 2017 All times are CDT. -5 hours from GMT.

  • Wind
    3mph, 8mph gusts
  • Air Temp 67°f
  • Sea Pressure 1009.5mb
  • 9076027 - West Neebish, Mi
  • 9076027 - West Neebish, Mi

More Historic Weather Station data

Upgrade to MSW Pro to gain access to the past 30 days of data for over 8000 Wavebouys and Weather Stations around the globe.

Join Pro

Comparision Forecast

View Surf forecast
   
Fri 05/26 2:18pm 3 8 mph 1009.5mb 67f
2:12pm 7 10 mph 1009.5mb 67f
2:06pm 7 10 mph 1009.4mb 67f
2:00pm 9 11 mph 1009.4mb 68f
1:54pm 9 11 mph 1009.5mb 69f
1:48pm 8 9 mph 1009.5mb 69f
1:42pm 5 7 mph 1009.5mb 68f
1:36pm 5 7 mph 1009.6mb 67f
1:30pm  -  1 mph 1009.6mb 67f
1:24pm 1 2 mph 1009.6mb 68f
1:18pm  -  1 mph 1009.6mb 68f
1:12pm  -  1 mph 1009.7mb 67f
1:06pm  -  1 mph 1009.6mb 67f
1:00pm  -  1 mph 1009.7mb 68f
12:54pm  -  1 mph 1009.7mb 67f
12:48pm  -  1 mph 1009.7mb 67f
12:42pm 1 2 mph 1009.7mb 66f
12:36pm 1 2 mph 1009.8mb 66f
12:30pm 2 3 mph 1009.8mb 65f
12:24pm 2 3 mph 1009.8mb 65f
12:18pm 3 3 mph 1009.8mb 65f
12:12pm 3 3 mph 1009.7mb 64f
12:06pm 2 3 mph 1009.6mb 64f
12:00pm 2 3 mph 1009.6mb 65f
11:54am 2 5 mph 1009.5mb 65f
11:48am 3 6 mph 1009.5mb 64f
11:42am 3 5 mph 1009.5mb 64f
11:36am 5 6 mph 1009.4mb 64f
11:30am 6 7 mph 1009.4mb 64f
11:24am 6 6 mph 1009.5mb 64f
11:18am 5 6 mph 1009.5mb 64f
11:12am 6 7 mph 1009.5mb 64f
11:06am 3 6 mph 1009.5mb 64f
11:00am 5 7 mph 1009.5mb 63f
10:54am 6 7 mph 1009.5mb 61f
10:48am 7 8 mph 1009.5mb 61f
10:42am 5 6 mph 1009.4mb 62f
10:36am 7 8 mph 1009.5mb 62f
10:30am 7 8 mph 1009.5mb 62f
10:24am 7 8 mph 1009.5mb 62f
10:18am 7 7 mph 1009.5mb 62f
10:12am 7 7 mph 1009.5mb 63f
10:06am 5 7 mph 1009.6mb 62f
10:00am 7 8 mph 1009.5mb 62f
9:54am 7 8 mph 1009.5mb 61f
9:48am 7 8 mph 1009.5mb 61f
9:42am 6 7 mph 1009.5mb 60f
9:36am 6 7 mph 1009.6mb 59f
9:30am 6 7 mph 1009.6mb 59f
9:24am 6 6 mph 1009.5mb 59f
9:18am 5 7 mph 1009.6mb 58f
9:12am 6 7 mph 1009.6mb 58f
9:06am 5 7 mph 1009.5mb 57f
9:00am 6 7 mph 1009.5mb 57f
8:54am 6 7 mph 1009.5mb 57f
8:48am 6 7 mph 1009.5mb 57f
8:42am 7 8 mph 1009.6mb 56f
8:36am 6 9 mph 1009.5mb 57f
8:30am 6 8 mph 1009.5mb 57f
8:24am 5 7 mph 1009.6mb 57f
8:18am 5 6 mph 1009.6mb 57f
8:12am 5 6 mph 1009.6mb 57f
8:06am 5 6 mph 1009.6mb 57f
8:00am 5 8 mph 1009.6mb 56f
7:54am 5 6 mph 1009.6mb 55f
7:48am 6 7 mph 1009.6mb 55f
7:42am 6 6 mph 1009.6mb 54f
7:36am 5 6 mph 1009.6mb 53f
7:30am 5 6 mph 1009.6mb 53f
7:24am 5 6 mph 1009.5mb 52f
7:18am 6 6 mph 1009.5mb 52f
7:12am 6 6 mph 1009.4mb 51f
7:06am 6 6 mph 1009.4mb 51f
7:00am 6 6 mph 1009.4mb 50f
6:54am 5 6 mph 1009.4mb 50f
6:48am 5 6 mph 1009.3mb 50f
6:42am 6 7 mph 1009.2mb 50f
6:36am 7 8 mph 1009.1mb 49f
6:30am 7 7 mph 1009mb 49f
6:24am 5 6 mph 1008.9mb 49f
6:18am 5 6 mph 1008.9mb 49f
6:12am 6 6 mph 1008.8mb 49f
6:06am 5 6 mph 1008.7mb 49f
6:00am 5 6 mph 1008.6mb 48f
5:54am 5 6 mph 1008.6mb 48f
5:48am 6 7 mph 1008.5mb 48f
5:42am 6 7 mph 1008.4mb 48f
5:36am 5 6 mph 1008.4mb 49f
5:30am 3 5 mph 1008.3mb 48f
5:24am 5 6 mph 1008.3mb 48f
5:18am 5 6 mph 1008.3mb 49f
5:12am 5 6 mph 1008.3mb 49f
5:06am 5 5 mph 1008.2mb 49f
5:00am 5 7 mph 1008.2mb 49f
4:54am 6 7 mph 1008.2mb 49f
4:48am 6 7 mph 1008.2mb 49f
4:42am 5 6 mph 1008.2mb 49f
4:36am 5 7 mph 1008.2mb 49f
4:30am 6 7 mph 1008.2mb 50f
4:24am 6 7 mph 1008.1mb 50f
4:18am 3 6 mph 1008.1mb 49f
4:12am 3 6 mph 1008mb 49f
4:06am 5 7 mph 1007.9mb 49f
4:00am 6 7 mph 1007.9mb 50f
3:48am 7 8 mph 1007.8mb 50f
3:42am 6 9 mph 1007.8mb 50f
3:36am 3 6 mph 1007.8mb 50f
3:30am 5 7 mph 1007.8mb 50f
3:24am 5 7 mph 1007.8mb 51f
3:18am 6 7 mph 1007.8mb 51f
3:12am 6 6 mph 1007.7mb 51f
3:06am 6 6 mph 1007.6mb 52f
3:00am 6 7 mph 1007.5mb 52f
2:54am 6 7 mph 1007.4mb 52f
2:48am 6 6 mph 1007.4mb 52f
2:42am 6 7 mph 1007.4mb 52f
2:36am 6 7 mph 1007.3mb 52f
2:30am 6 7 mph 1007.3mb 52f
2:24am 6 7 mph 1007.3mb 52f
2:18am 6 8 mph 1007.2mb 52f
2:12am 6 7 mph 1007.2mb 53f
2:06am 6 7 mph 1007.2mb 53f
2:00am 6 7 mph 1007.3mb 53f
1:48am 5 6 mph 1007.3mb 53f
1:42am 5 6 mph 1007.2mb 53f
1:36am 3 6 mph 1007.3mb 53f
1:30am 3 5 mph 1007.3mb 53f
1:24am 5 6 mph 1007.3mb 53f
1:18am 5 6 mph 1007.3mb 53f
1:12am 6 6 mph 1007.3mb 54f
1:06am 5 7 mph 1007.2mb 54f
1:00am 5 6 mph 1007.2mb 54f
12:54am 5 6 mph 1007.2mb 54f
12:48am 3 5 mph 1007.2mb 54f
12:42am 3 5 mph 1007.2mb 54f
12:36am 3 5 mph 1007.3mb 54f
12:30am 3 3 mph 1007.2mb 54f
12:24am 3 5 mph 1007.2mb 53f
12:18am 3 3 mph 1007.2mb 54f
12:12am 3 5 mph 1007.2mb 54f
12:06am 3 5 mph 1007.2mb 54f
12:00am 2 3 mph 1007.3mb 54f
Thu 05/25 11:54pm 2 3 mph 1007.3mb 54f
11:48pm 2 3 mph 1007.3mb 54f
11:42pm 2 3 mph 1007.3mb 54f
11:36pm 2 2 mph 1007.3mb 54f
11:30pm  -  1 mph 1007.3mb 54f
11:24pm  -  1 mph 1007.3mb 54f
11:18pm  -  1 mph 1007.3mb 53f
11:12pm  -  2 mph 1007.3mb 53f
11:06pm 1 2 mph 1007.3mb 54f
11:00pm 1 1 mph 1007.3mb 54f
10:54pm 1 3 mph 1007.4mb 54f
10:48pm 3 5 mph 1007.3mb 54f
10:42pm 2 2 mph 1007.3mb 54f
10:36pm 2 3 mph 1007.2mb 53f
10:30pm 3 5 mph 1007.2mb 53f
10:24pm 5 6 mph 1007.2mb 54f
10:18pm 3 3 mph 1007.2mb 54f
10:12pm 3 3 mph 1007.2mb 54f
10:06pm 2 3 mph 1007.1mb 54f
10:00pm 2 3 mph 1007.1mb 54f
9:54pm 1 3 mph 1007.1mb 54f
9:48pm 1 3 mph 1007.1mb 52f
9:42pm 1 3 mph 1007mb 54f
9:36pm 3 5 mph 1006.9mb 54f
9:30pm 3 5 mph 1006.8mb 55f
9:24pm 2 3 mph 1006.8mb 56f
9:18pm  -  2 mph 1006.7mb 55f
9:12pm 2 3 mph 1006.7mb 55f
9:06pm 2 5 mph 1006.7mb 55f
9:00pm 2 5 mph 1006.6mb 55f
8:54pm 3 5 mph 1006.6mb 55f
8:48pm 1 5 mph 1006.6mb 55f
8:42pm 3 6 mph 1006.5mb 56f
8:36pm 3 5 mph 1006.4mb 56f
8:30pm 3 5 mph 1006.4mb 56f
8:24pm 2 5 mph 1006.3mb 56f
8:18pm 3 5 mph 1006.2mb 57f
8:12pm 2 7 mph 1006.2mb 57f
8:06pm 3 9 mph 1006.2mb 57f
8:00pm 6 9 mph 1006.1mb 58f
7:54pm 7 10 mph 1006mb 58f
7:48pm 5 7 mph 1005.9mb 58f
7:42pm 3 6 mph 1005.9mb 58f
7:36pm 3 6 mph 1005.8mb 58f
7:30pm 2 6 mph 1005.8mb 58f
7:24pm  -  3 mph 1005.7mb 58f
7:18pm  -  3 mph 1005.6mb 58f
7:12pm 3 6 mph 1005.6mb 58f
7:06pm 5 7 mph 1005.6mb 58f
7:00pm 3 6 mph 1005.5mb 58f
6:54pm 3 5 mph 1005.4mb 58f
6:48pm 2 6 mph 1005.4mb 58f
6:42pm 2 5 mph 1005.3mb 58f
6:36pm 2 5 mph 1005.3mb 58f
6:30pm 3 6 mph 1005.3mb 58f
6:24pm 3 6 mph 1005.3mb 58f
6:18pm 3 7 mph 1005.3mb 58f
6:12pm 5 9 mph 1005.4mb 58f
6:06pm 7 10 mph 1005.4mb 58f
6:00pm 5 11 mph 1005.3mb 58f
5:48pm 5 15 mph 1005.2mb 58f
5:42pm 5 10 mph 1005.1mb 58f
5:36pm 5 9 mph 1005.2mb 58f
5:30pm 5 9 mph 1005.2mb 58f
5:24pm 6 13 mph 1005.2mb 58f
5:18pm 6 13 mph 1005.1mb 58f
5:12pm 6 10 mph 1005.1mb 59f
5:06pm 2 6 mph 1005.1mb 59f
5:00pm 2 6 mph 1005mb 59f
4:48pm 2 3 mph 1005mb 58f
4:42pm 2 3 mph 1005mb 58f
4:36pm 3 7 mph 1004.9mb 58f
4:30pm 3 7 mph 1005mb 58f
4:24pm 6 10 mph 1005mb 58f
4:18pm 6 9 mph 1005mb 58f
4:12pm 6 9 mph 1005mb 58f
4:06pm 5 9 mph 1005mb 57f
4:00pm 5 9 mph 1005mb 57f
3:54pm 6 8 mph 1005mb 57f
3:48pm 6 8 mph 1004.9mb 57f
3:42pm 9 15 mph 1004.8mb 58f
3:36pm 9 15 mph 1004.7mb 60f
3:30pm 10 17 mph 1004.7mb 60f
3:24pm 6 16 mph 1004.7mb 60f
3:18pm 5 16 mph 1004.7mb 60f
3:12pm 11 18 mph 1004.7mb 61f
3:06pm 8 11 mph 1004.6mb 61f
3:00pm 8 11 mph 1004.5mb 60f
2:54pm 8 11 mph 1004.5mb 60f
2:48pm 3 6 mph 1004.6mb 59f
2:42pm 3 6 mph 1004.7mb 59f
2:36pm 6 8 mph 1004.9mb 59f
2:30pm 6 10 mph 1004.9mb 59f
2:24pm 7 11 mph 1004.9mb 59f
2:18pm 7 11 mph 1004.9mb 60f
2:12pm 6 13 mph 1004.8mb 60f
2:06pm 7 11 mph 1004.8mb 60f
2:00pm 5 9 mph 1004.8mb 60f
1:54pm 6 8 mph 1004.8mb 60f
1:48pm 6 13 mph 1004.9mb 59f
1:42pm 6 13 mph 1005mb 58f
1:36pm 7 10 mph 1004.9mb 58f
1:30pm 6 8 mph 1004.9mb 59f
1:24pm 6 8 mph 1004.7mb 61f
1:18pm 7 13 mph 1004.5mb 61f
1:12pm 6 11 mph 1004.4mb 61f
1:06pm 5 8 mph 1004.4mb 61f
1:00pm 8 14 mph 1004.5mb 62f
12:54pm 6 11 mph 1004.4mb 62f
12:48pm 6 9 mph 1004.3mb 63f
12:42pm 3 8 mph 1004.3mb 63f
12:36pm 3 8 mph 1004.3mb 63f
12:30pm 10 14 mph 1004.3mb 63f
12:24pm 10 14 mph 1004.3mb 63f
12:18pm 7 10 mph 1004.3mb 63f
12:12pm 6 8 mph 1004.3mb 59f
12:06pm 6 8 mph 1004.3mb 59f
12:00pm 7 10 mph 1004.4mb 59f
11:54am 8 9 mph 1004.5mb 59f
11:48am 8 9 mph 1004.7mb 58f
11:42am 8 10 mph 1004.7mb 58f
11:36am 9 11 mph 1004.8mb 57f
11:30am 6 9 mph 1004.8mb 57f
11:24am 6 10 mph 1004.8mb 57f
11:18am 6 11 mph 1004.8mb 57f
11:12am 6 11 mph 1004.8mb 60f
11:06am 8 11 mph 1004.8mb 56f
11:00am 7 8 mph 1004.9mb 56f
10:54am 6 7 mph 1004.9mb 55f
10:48am 6 8 mph 1005mb 56f
10:42am 6 8 mph 1005mb 55f
10:36am 6 8 mph 1005.1mb 55f
10:30am 7 10 mph 1005.1mb 54f
10:24am 7 9 mph 1005.1mb 54f
10:18am 7 9 mph 1005.1mb 53f
10:12am 8 9 mph 1005.2mb 53f
10:06am 8 9 mph 1005.2mb 53f
10:00am 7 7 mph 1005.2mb 53f
9:54am 6 8 mph 1005.2mb 52f
9:48am 7 8 mph 1005.2mb 52f
9:42am 7 8 mph 1005.2mb 51f
9:36am 7 9 mph 1005.3mb 53f
9:30am 7 9 mph 1005.4mb 53f
9:24am 6 8 mph 1005.4mb 53f
9:18am 6 8 mph 1005.4mb 54f
9:12am 6 8 mph 1005.3mb 53f
9:06am 6 8 mph 1005.4mb 53f
9:00am 6 8 mph 1005.4mb 53f
8:54am 6 8 mph 1005.4mb 53f
8:48am 7 7 mph 1005.5mb 53f
8:42am 6 7 mph 1005.6mb 53f
8:36am 6 7 mph 1005.6mb 54f
8:30am 6 7 mph 1005.6mb 54f
8:24am 5 6 mph 1005.7mb 54f
8:18am 5 6 mph 1005.7mb 53f
8:12am 3 5 mph 1005.7mb 54f
8:06am 3 5 mph 1005.7mb 53f
8:00am 3 5 mph 1005.7mb 53f
7:54am 3 5 mph 1005.7mb 53f
7:48am 2 5 mph 1005.7mb 54f
7:42am 2 5 mph 1005.6mb 54f
7:36am 3 7 mph 1005.6mb 54f
7:30am 1 5 mph 1005.5mb 55f
7:24am 3 6 mph 1005.5mb 55f
7:18am 1 3 mph 1005.6mb 53f
7:12am 1 3 mph 1005.6mb 53f
7:06am 2 3 mph 1005.6mb 53f
7:00am 2 3 mph 1005.5mb 52f
6:54am 3 5 mph 1005.5mb 52f
6:48am 5 6 mph 1005.5mb 52f
6:42am 3 5 mph 1005.5mb 52f
6:36am 3 3 mph 1005.5mb 52f
6:30am 2 3 mph 1005.5mb 52f
6:24am 2 3 mph 1005.5mb 52f
6:18am 2 3 mph 1005.4mb 52f
6:12am 2 3 mph 1005.4mb 52f
6:06am 2 5 mph 1005.4mb 52f
6:00am 3 6 mph 1005.4mb 52f
5:54am 3 6 mph 1005.4mb 52f
5:48am 3 6 mph 1005.4mb 52f
5:42am 5 7 mph 1005.4mb 52f
5:36am 6 8 mph 1005.4mb 52f
5:30am 6 7 mph 1005.4mb 52f
5:24am 5 8 mph 1005.4mb 51f
5:18am 8 8 mph 1005.4mb 51f
5:12am 8 8 mph 1005.4mb 52f
5:06am 7 8 mph 1005.4mb 52f
5:00am 7 8 mph 1005.4mb 52f
4:54am 6 8 mph 1005.4mb 53f
4:48am 6 8 mph 1005.4mb 52f
4:42am 6 6 mph 1005.4mb 52f
4:36am 6 6 mph 1005.4mb 51f
4:30am 3 3 mph 1005.3mb 51f
4:24am 3 3 mph 1005.4mb 51f
4:18am 3 3 mph 1005.3mb 51f
4:12am 2 3 mph 1005.3mb 51f
4:06am 5 6 mph 1005.3mb 51f
4:00am 5 6 mph 1005.3mb 51f
3:54am 5 6 mph 1005.4mb 52f
3:48am 2 2 mph 1005.4mb 52f
3:42am  -  2 mph 1005.4mb 52f
3:36am 1 2 mph 1005.4mb 52f
3:30am 2 3 mph 1005.4mb 53f
3:24am 1 1 mph 1005.4mb 52f
3:18am  -  3 mph 1005.3mb 53f
3:12am 2 8 mph 1005.3mb 53f
3:06am 2 8 mph 1005.3mb 53f
3:00am 7 9 mph 1005.3mb 53f
2:54am 8 10 mph 1005.4mb 52f
2:48am 7 10 mph 1005.4mb 52f
2:42am 9 11 mph 1005.4mb 52f
2:36am 7 9 mph 1005.4mb 52f
2:30am 6 7 mph 1005.5mb 50f
2:24am 6 7 mph 1005.7mb 50f
2:18am 2 5 mph 1005.8mb 51f
2:12am 2 3 mph 1005.8mb 52f
2:06am 2 3 mph 1005.9mb 52f
2:00am 2 5 mph 1005.9mb 53f
1:54am 5 8 mph 1006mb 53f
1:48am 7 9 mph 1005.9mb 52f
1:42am 7 9 mph 1005.9mb 52f
1:36am 7 9 mph 1005.9mb 52f
1:30am 8 9 mph 1005.8mb 53f
1:24am 8 9 mph 1005.8mb 52f
1:18am 8 10 mph 1005.8mb 53f
1:12am 8 10 mph 1005.8mb 53f
1:06am 8 10 mph 1005.9mb 53f
1:00am 8 10 mph 1005.9mb 53f
12:54am 6 7 mph 1006mb 53f
12:48am 7 9 mph 1006mb 53f
12:42am 7 8 mph 1006.1mb 53f
12:36am 7 8 mph 1006.2mb 54f
12:30am 6 8 mph 1006.1mb 53f
12:24am 6 8 mph 1006.1mb 54f
12:18am 6 8 mph 1006.1mb 54f
12:12am 6 9 mph 1006.2mb 54f
12:06am 7 9 mph 1006.3mb 53f
12:00am 6 8 mph 1006.4mb 52f
Wed 05/24 11:54pm 6 8 mph 1006.4mb 52f
11:48pm 8 8 mph 1006.4mb 53f
11:42pm 3 3 mph 1006.4mb 53f
11:36pm 3 5 mph 1006.5mb 52f
11:30pm 3 5 mph 1006.4mb 52f
11:24pm 3 5 mph 1006.4mb 52f
11:18pm 3 6 mph 1006.3mb 53f
11:12pm 3 6 mph 1006.3mb 53f
11:06pm 5 6 mph 1006.3mb 53f
11:00pm 5 7 mph 1006.3mb 53f
10:54pm 6 8 mph 1006.3mb 52f
10:48pm 6 7 mph 1006.4mb 53f
10:42pm 6 7 mph 1006.4mb 53f
10:36pm 3 5 mph 1006.5mb 54f
10:30pm 3 6 mph 1006.5mb 54f
10:24pm 5 6 mph 1006.4mb 53f
10:18pm 5 5 mph 1006.5mb 53f
10:12pm 3 5 mph 1006.4mb 54f
10:06pm 3 5 mph 1006.4mb 54f
10:00pm 2 2 mph 1006.5mb 54f
9:54pm 2 3 mph 1006.5mb 54f
9:48pm 2 3 mph 1006.6mb 54f
9:42pm 2 3 mph 1006.6mb 55f
9:36pm 2 3 mph 1006.6mb 55f
9:30pm 2 3 mph 1006.5mb 55f
9:24pm 3 3 mph 1006.5mb 55f
9:18pm 2 3 mph 1006.5mb 55f
9:12pm 3 6 mph 1006.5mb 55f
9:06pm 5 7 mph 1006.5mb 55f
9:00pm 6 8 mph 1006.5mb 55f
8:54pm 6 8 mph 1006.5mb 55f
8:48pm 6 7 mph 1006.5mb 55f
8:42pm 5 6 mph 1006.4mb 55f
8:36pm 5 6 mph 1006.4mb 55f
8:30pm 5 6 mph 1006.4mb 55f
8:24pm 5 6 mph 1006.5mb 55f
8:18pm 2 5 mph 1006.4mb 55f
8:12pm 3 6 mph 1006.5mb 55f
8:06pm 5 6 mph 1006.5mb 55f
8:00pm 2 3 mph 1006.5mb 55f
7:54pm 2 3 mph 1006.5mb 54f
7:48pm 2 5 mph 1006.5mb 55f
7:42pm 5 6 mph 1006.5mb 55f
7:36pm 3 6 mph 1006.5mb 55f
7:30pm 5 6 mph 1006.5mb 55f
7:24pm 5 6 mph 1006.6mb 56f
7:18pm 5 7 mph 1006.6mb 55f
7:12pm 5 7 mph 1006.6mb 56f
7:06pm 5 7 mph 1006.6mb 56f
7:00pm 5 6 mph 1006.6mb 56f
6:54pm 5 6 mph 1006.6mb 55f
6:48pm 5 6 mph 1006.5mb 55f
6:42pm 5 6 mph 1006.5mb 60f
6:36pm 3 6 mph 1006.5mb 59f
6:30pm 3 6 mph 1006.5mb 58f
6:24pm 5 8 mph 1006.4mb 58f
6:18pm 2 8 mph 1006.4mb 60f
6:12pm 2 9 mph 1006.4mb 60f
6:06pm 6 10 mph 1006.4mb 60f
6:00pm 3 11 mph 1006.4mb 59f
5:54pm 7 10 mph 1006.3mb 59f
5:48pm 7 10 mph 1006.4mb 59f
5:42pm 7 11 mph 1006.4mb 59f
5:36pm 7 11 mph 1006.4mb 59f
5:30pm 9 10 mph 1006.4mb 59f
5:24pm 8 10 mph 1006.4mb 59f
5:18pm 5 10 mph 1006.5mb 60f
5:12pm 3 6 mph 1006.6mb 59f
5:06pm 3 6 mph 1006.6mb 59f
5:00pm 7 10 mph 1006.7mb 58f
4:54pm 7 9 mph 1006.7mb 58f
4:48pm 5 8 mph 1006.7mb 56f
4:42pm 2 7 mph 1006.7mb 58f
4:36pm 2 7 mph 1006.6mb 58f
4:30pm 3 7 mph 1006.5mb 58f
4:24pm 5 10 mph 1006.4mb 58f
4:18pm 5 10 mph 1006.5mb 57f
4:12pm 5 7 mph 1006.5mb 57f
4:06pm 5 7 mph 1006.7mb 57f
4:00pm 7 9 mph 1006.8mb 57f
3:54pm 6 8 mph 1006.7mb 57f
3:48pm 6 8 mph 1006.8mb 57f
3:42pm 3 6 mph 1006.9mb 57f
3:36pm 5 7 mph 1006.9mb 57f
3:30pm 3 7 mph 1006.8mb 57f
3:24pm 7 8 mph 1006.7mb 57f
3:18pm 8 10 mph 1006.8mb 56f
3:12pm 7 9 mph 1006.9mb 56f
3:06pm 7 9 mph 1006.9mb 55f
3:00pm 5 6 mph 1007mb 54f
2:54pm 5 6 mph 1007.1mb 53f
2:48pm 3 5 mph 1007.2mb 54f
2:42pm 3 5 mph 1007.3mb 52f
2:36pm  -  3 mph 1007.4mb 52f
2:30pm 3 6 mph 1007.3mb 55f
2:24pm 2 3 mph 1007.2mb 54f
2:18pm 2 3 mph 1007.2mb 54f
2:12pm 3 5 mph 1007.1mb 54f
2:06pm 5 6 mph 1007.2mb 53f
2:00pm 5 6 mph 1007.3mb 52f
1:54pm 5 6 mph 1007.3mb 52f
1:48pm 5 7 mph 1007.2mb 52f
1:42pm 1 6 mph 1007.2mb 54f
1:36pm 1 6 mph 1007.1mb 55f
1:30pm 3 7 mph 1007mb 54f
1:24pm 5 8 mph 1007mb 54f
1:18pm 3 6 mph 1007.1mb 54f
1:12pm 6 8 mph 1007.1mb 54f
1:06pm 6 8 mph 1007.2mb 54f
1:00pm 7 9 mph 1007.2mb 54f
12:54pm 5 10 mph 1007.3mb 54f
12:48pm 5 10 mph 1007.3mb 54f
12:42pm 6 8 mph 1007.4mb 53f
12:36pm 6 8 mph 1007.5mb 53f
12:30pm 3 8 mph 1007.5mb 53f
12:24pm 2 5 mph 1007.6mb 53f
12:18pm 3 5 mph 1007.6mb 53f
12:12pm 3 6 mph 1007.7mb 53f
12:06pm 3 5 mph 1007.7mb 53f
12:00pm 2 6 mph 1007.6mb 53f
11:54am 2 6 mph 1007.6mb 53f
11:48am 3 6 mph 1007.7mb 53f
11:42am 2 6 mph 1007.7mb 52f
11:36am 6 8 mph 1007.7mb 52f
11:30am 5 6 mph 1007.8mb 53f
11:24am 2 3 mph 1007.9mb 52f
11:18am 1 3 mph 1007.9mb 53f
11:12am  -  3 mph 1007.9mb 53f
11:06am 3 7 mph 1007.9mb 53f
11:00am 6 9 mph 1008mb 52f
10:54am 6 9 mph 1008mb 52f
10:48am 3 6 mph 1008mb 52f
10:42am 3 6 mph 1008.1mb 52f
10:36am 5 7 mph 1008mb 52f
10:30am 3 5 mph 1008mb 52f
10:24am 3 5 mph 1008mb 52f
10:18am 3 7 mph 1008mb 52f
10:12am 6 9 mph 1008mb 52f
10:06am 5 8 mph 1008mb 52f
10:00am 5 10 mph 1008mb 52f
9:54am 6 9 mph 1008mb 52f
9:48am 6 9 mph 1008.1mb 51f
9:42am 8 11 mph 1008.2mb 52f
9:36am 5 8 mph 1008.2mb 52f
9:30am 6 8 mph 1008.2mb 51f
9:24am 5 8 mph 1008.2mb 52f
9:18am 5 8 mph 1008.2mb 51f
9:12am 7 9 mph 1008.3mb 52f
9:06am 3 8 mph 1008.3mb 51f
9:00am 5 7 mph 1008.2mb 51f
8:54am 5 7 mph 1008.3mb 51f
8:48am 5 8 mph 1008.3mb 51f
8:42am 3 10 mph 1008.3mb 51f
8:36am 3 10 mph 1008.3mb 51f
8:30am 2 9 mph 1008.2mb 51f
8:24am 5 7 mph 1008.2mb 51f
8:18am 6 10 mph 1008.2mb 51f
8:12am 5 7 mph 1008.2mb 51f
8:06am 5 7 mph 1008.1mb 51f
8:00am 3 6 mph 1008.1mb 51f
7:54am 2 3 mph 1008.1mb 51f
7:48am 2 5 mph 1008.1mb 51f
7:42am 2 6 mph 1008mb 50f
7:36am 2 6 mph 1008mb 49f
7:30am 2 3 mph 1008mb 49f
7:24am 2 3 mph 1008mb 48f
7:18am 3 5 mph 1008mb 49f
7:12am 3 5 mph 1007.9mb 49f
7:06am 2 3 mph 1007.9mb 49f
7:00am 2 3 mph 1007.8mb 49f
6:54am 2 2 mph 1007.9mb 49f
6:48am 2 2 mph 1007.9mb 49f
6:42am 1 2 mph 1007.9mb 49f
6:36am 2 3 mph 1007.8mb 49f
6:30am 2 5 mph 1007.8mb 49f
6:24am 3 6 mph 1007.6mb 49f
6:18am 3 6 mph 1007.6mb 50f
6:12am 3 6 mph 1007.6mb 50f
6:06am 3 6 mph 1007.7mb 50f
6:00am 3 6 mph 1007.7mb 49f
5:54am 2 3 mph 1007.7mb 49f
5:48am 1 2 mph 1007.6mb 48f
5:42am 1 2 mph 1007.6mb 48f
5:36am  -  2 mph 1007.5mb 47f
5:30am 1 2 mph 1007.5mb 47f
5:24am 1 2 mph 1007.5mb 47f
5:18am  -  2 mph 1007.5mb 48f
5:12am  -  1 mph 1007.5mb 47f
5:06am  -  1 mph 1007.5mb 47f
5:00am  -  1 mph 1007.6mb 47f
4:54am  -  1 mph 1007.6mb 47f
4:48am  -  1 mph 1007.6mb 47f
4:42am  -  1 mph 1007.6mb 47f
4:36am  -  0 mph 1007.5mb 47f
4:30am  -  0 mph 1007.4mb 47f
4:24am  -  0 mph 1007.4mb 47f
4:18am  -  1 mph 1007.3mb 47f
4:12am 2 2 mph 1007.4mb 47f
4:06am 2 2 mph 1007.4mb 47f
4:00am 2 3 mph 1007.4mb 47f
3:54am 2 3 mph 1007.4mb 47f
3:48am 1 2 mph 1007.4mb 47f
3:42am 1 2 mph 1007.3mb 47f
3:36am  -  1 mph 1007.4mb 47f
3:30am  -  1 mph 1007.3mb 47f
3:24am  -  1 mph 1007.5mb 47f
3:18am  -  1 mph 1007.4mb 47f
3:12am  -  1 mph 1007.4mb 47f
3:06am  -  1 mph 1007.5mb 47f
3:00am  -  2 mph 1007.5mb 47f
2:54am  -  2 mph 1007.5mb 47f
2:48am 2 2 mph 1007.6mb 47f
2:42am 2 2 mph 1007.6mb 47f
2:36am 2 2 mph 1007.6mb 46f
2:30am 2 3 mph 1007.5mb 46f
2:24am 3 3 mph 1007.5mb 46f
2:18am 3 3 mph 1007.5mb 46f
2:12am  -  1 mph 1007.5mb 46f
2:06am  -  1 mph 1007.6mb 46f
2:00am 1 2 mph 1007.5mb 46f
1:54am 1 2 mph 1007.5mb 46f
1:48am 2 3 mph 1007.5mb -
1:42am 3 3 mph 1007.6mb -
1:36am 2 2 mph 1007.6mb -
1:30am 2 2 mph 1007.6mb 46f
1:24am 2 2 mph 1007.7mb 46f
1:18am 2 3 mph 1007.8mb 46f
1:12am 2 3 mph 1007.9mb 46f
1:06am  -  2 mph 1007.9mb 46f
1:00am 1 2 mph 1007.9mb 46f
12:54am 1 2 mph 1007.9mb 46f
12:48am 1 2 mph 1008mb 46f
12:42am  -  2 mph 1008mb 46f
12:36am 2 3 mph 1008.1mb 46f
12:30am 1 2 mph 1008.1mb 46f
12:24am  -  1 mph 1008.1mb 46f
12:18am 1 2 mph 1008.1mb 46f
12:12am 1 2 mph 1008.1mb 46f
12:06am 1 2 mph 1008.2mb 46f
12:00am 2 2 mph 1008.2mb 46f
Tue 05/23 11:54pm 2 2 mph 1008.1mb 46f
11:48pm 1 2 mph 1008.2mb 46f
11:42pm 2 3 mph 1008.2mb 46f
11:36pm 2 3 mph 1008.2mb 46f
11:30pm 3 5 mph 1008.2mb 46f
11:24pm 3 5 mph 1008.2mb 46f
11:18pm 3 5 mph 1008.2mb 46f
11:12pm 3 5 mph 1008.2mb 46f
11:06pm 6 7 mph 1008.3mb 46f
11:00pm 6 7 mph 1008.3mb 46f
10:54pm 6 7 mph 1008.3mb 46f
10:48pm 7 8 mph 1008.4mb 46f
10:42pm 6 7 mph 1008.4mb 46f
10:36pm 6 7 mph 1008.4mb 46f
10:30pm 6 7 mph 1008.5mb 47f
10:24pm 5 6 mph 1008.5mb 47f
10:18pm 5 6 mph 1008.6mb 47f
10:12pm 5 6 mph 1008.6mb 47f
10:06pm 6 7 mph 1008.6mb 47f
10:00pm 6 7 mph 1008.7mb 47f
9:54pm 6 8 mph 1008.8mb 47f
9:48pm 5 6 mph 1008.8mb 48f
9:42pm 5 6 mph 1008.8mb 48f
9:36pm 5 6 mph 1008.9mb 48f
9:30pm 5 6 mph 1008.9mb 49f
9:24pm 5 6 mph 1008.9mb 49f
9:18pm 5 6 mph 1008.9mb 49f
9:12pm 3 5 mph 1009mb 49f
9:06pm 3 5 mph 1008.9mb 50f
9:00pm 5 6 mph 1008.9mb 50f
8:54pm 5 6 mph 1008.9mb 50f
8:48pm 5 6 mph 1008.9mb 51f
8:42pm 5 6 mph 1008.9mb 51f
8:36pm 5 6 mph 1008.9mb 51f
8:30pm 5 6 mph 1008.8mb 51f
8:24pm 5 7 mph 1008.8mb 52f
8:18pm 3 5 mph 1008.9mb 52f
8:12pm 5 6 mph 1008.9mb 52f
8:06pm 5 6 mph 1008.9mb 53f
8:00pm 5 7 mph 1008.8mb 53f
7:54pm 6 7 mph 1008.7mb 53f
7:48pm 6 7 mph 1008.7mb 54f
7:42pm 5 7 mph 1008.7mb 54f
7:36pm 7 8 mph 1008.7mb 55f
7:30pm 7 7 mph 1008.7mb 55f
7:24pm 6 8 mph 1008.6mb 55f
7:18pm 6 7 mph 1008.7mb 55f
7:12pm 7 8 mph 1008.7mb 56f
7:06pm 6 8 mph 1008.7mb 56f
7:00pm 6 7 mph 1008.7mb 56f
6:54pm 6 8 mph 1008.7mb 56f
6:48pm 7 10 mph 1008.7mb -
6:42pm 9 11 mph 1008.7mb -
6:36pm 9 11 mph 1008.7mb -
6:30pm 7 8 mph 1008.6mb 58f
6:24pm 7 8 mph 1008.6mb 57f
6:18pm 6 7 mph 1008.6mb 58f
6:12pm 6 9 mph 1008.6mb 57f
6:06pm 9 13 mph 1008.6mb 58f
6:00pm 9 13 mph 1008.6mb 58f
5:54pm 11 14 mph 1008.4mb 59f
5:48pm 9 15 mph 1008.4mb 59f
5:42pm 13 14 mph 1008.3mb 59f
5:36pm 11 15 mph 1008.3mb 59f
5:30pm 11 15 mph 1008.3mb 59f
5:24pm 10 14 mph 1008.3mb 60f
5:18pm 8 11 mph 1008.3mb 61f
5:12pm 8 9 mph 1008.1mb 61f
5:06pm 7 9 mph 1008.1mb 59f
5:00pm 7 9 mph 1008.1mb 61f
4:54pm 7 8 mph 1008mb 61f
4:48pm 8 9 mph 1008.1mb 60f
4:42pm 8 9 mph 1008mb 61f
4:36pm 8 10 mph 1008mb 61f
4:30pm 8 10 mph 1008.1mb 61f
4:24pm 6 8 mph 1008.2mb 61f
4:18pm 6 8 mph 1008.1mb 61f
4:12pm 5 8 mph 1008.2mb 61f
4:06pm 5 8 mph 1008.3mb 60f
4:00pm 7 8 mph 1008.4mb 59f
3:54pm 8 10 mph 1008.4mb 61f
3:48pm 8 9 mph 1008.4mb 60f
3:42pm 8 9 mph 1008.6mb 60f
3:36pm 8 8 mph 1008.7mb 60f
3:30pm 7 8 mph 1008.7mb 60f
3:24pm 6 8 mph 1008.7mb 60f
3:18pm 7 8 mph 1008.6mb 61f
3:12pm 7 8 mph 1008.8mb 61f
3:06pm 6 8 mph 1008.8mb 61f
3:00pm 6 8 mph 1008.9mb 60f
2:54pm 5 7 mph 1008.9mb 61f
2:48pm 6 7 mph 1009mb 60f
2:42pm 6 7 mph 1009.1mb 60f
2:36pm 5 6 mph 1009.1mb 59f
2:30pm 5 7 mph 1009.1mb 59f
2:24pm 5 7 mph 1009.2mb 59f
2:12pm 8 9 mph 1009.2mb 59f
2:06pm 8 10 mph 1009.2mb 59f
2:00pm 5 5 mph 1009.3mb 60f
1:54pm 5 5 mph 1009.3mb 60f
1:48pm 3 6 mph 1009.3mb 60f
1:42pm 5 6 mph 1009.4mb 59f
1:36pm 3 7 mph 1009.5mb 59f
1:30pm 7 10 mph 1009.6mb 58f
1:24pm 9 10 mph 1009.5mb 57f
1:18pm 9 10 mph 1009.6mb 58f
1:12pm 6 8 mph 1009.6mb 58f
1:06pm 6 8 mph 1009.6mb 58f
1:00pm 7 9 mph 1009.6mb 58f
12:54pm 8 10 mph 1009.7mb 57f
12:48pm 5 8 mph 1009.8mb 58f
12:42pm 7 8 mph 1009.8mb 58f
12:36pm 6 7 mph 1009.8mb 58f
12:30pm 3 5 mph 1009.9mb 59f
12:24pm 3 5 mph 1010.1mb 58f
12:18pm 3 5 mph 1010.1mb 58f
12:12pm 3 5 mph 1010.2mb 58f
12:06pm 5 6 mph 1010.2mb 57f
12:00pm 3 5 mph 1010.3mb 56f
11:54am 3 5 mph 1010.4mb 56f
11:48am 3 6 mph 1010.5mb 56f
11:42am 5 5 mph 1010.5mb 55f
11:36am 5 5 mph 1010.5mb 55f
11:30am 3 5 mph 1010.5mb 55f
11:24am 5 6 mph 1010.6mb 54f
11:12am 5 7 mph 1010.5mb 51f
11:06am 6 6 mph 1010.5mb 53f
11:00am 6 6 mph 1010.4mb 52f
10:54am 5 6 mph 1010.4mb 52f
10:48am 2 5 mph 1010.5mb 53f
10:42am 2 5 mph 1010.6mb 52f
10:36am 3 5 mph 1010.8mb 51f
10:30am 5 7 mph 1010.9mb 50f
10:24am 6 7 mph 1010.8mb 51f
10:18am 7 8 mph 1010.7mb 49f
10:12am 7 8 mph 1010.8mb 49f
10:06am 6 7 mph 1010.9mb 49f
10:00am 5 6 mph 1011.1mb 50f
9:54am 5 7 mph 1011.1mb 49f
9:48am 7 9 mph 1011.1mb 48f
9:42am 7 9 mph 1011.1mb 48f
9:36am 7 9 mph 1011.2mb 48f
9:30am 8 10 mph 1011.3mb 47f
9:24am 9 10 mph 1011.3mb 47f
9:18am 7 10 mph 1011.2mb 47f
9:12am 8 8 mph 1011.2mb 47f
9:06am 6 8 mph 1011.3mb 47f
9:00am 7 8 mph 1011.3mb 47f
8:54am 7 8 mph 1011.2mb 47f
8:48am 6 8 mph 1011.4mb 47f
8:42am 6 8 mph 1011.3mb 47f
8:36am 7 8 mph 1011.3mb 47f
8:30am 5 6 mph 1011.4mb 47f
8:24am 5 6 mph 1011.4mb 47f
8:18am 5 6 mph 1011.4mb 47f
8:12am 6 6 mph 1011.4mb 47f
8:06am 6 7 mph 1011.3mb 47f
8:00am 7 8 mph 1011.2mb 47f
7:54am 7 8 mph 1011.1mb 47f
7:48am 3 6 mph 1011.1mb 47f
7:42am 3 5 mph 1011mb 47f
7:36am 3 6 mph 1011mb 47f
7:30am 3 5 mph 1011mb 47f
7:24am 2 3 mph 1011mb 47f
7:18am 3 5 mph 1011mb 47f
7:12am 1 3 mph 1011mb 47f
7:06am 2 3 mph 1011mb 47f
7:00am 2 3 mph 1010.9mb 47f
6:54am 2 3 mph 1010.8mb 47f
6:48am  -  3 mph 1010.9mb 47f
6:42am 2 5 mph 1010.9mb 47f
6:36am 2 3 mph 1010.8mb 47f
6:30am 2 3 mph 1010.8mb 47f
6:24am 2 3 mph 1010.6mb 46f
6:18am 2 3 mph 1010.5mb 47f
6:12am 2 3 mph 1010.4mb 47f
6:06am 2 6 mph 1010.1mb 47f
6:00am 5 8 mph 1010mb 47f
5:54am 7 8 mph 1010mb 47f
5:48am 7 8 mph 1009.9mb 47f
5:42am 3 7 mph 1009.9mb 47f
5:36am 3 7 mph 1009.9mb 47f
5:30am 6 9 mph 1010.1mb 47f
5:24am 3 5 mph 1010.1mb 47f
5:18am 3 5 mph 1010.1mb 47f
5:12am 3 5 mph 1010.2mb 47f
5:06am 3 6 mph 1010.3mb 47f
5:00am 3 6 mph 1010.2mb 47f
4:54am 3 7 mph 1010.2mb 47f
4:48am 2 5 mph 1010.1mb 47f
4:42am 5 7 mph 1010.1mb 47f
4:36am 1 1 mph 1010.1mb 47f
4:30am  -  3 mph 1010.2mb 48f
4:24am 2 3 mph 1010.2mb 47f
4:18am 2 3 mph 1010.2mb 48f
4:12am 2 3 mph 1010.2mb 47f
4:06am 1 3 mph 1010.2mb 47f
4:00am 2 3 mph 1010.2mb 47f
3:54am 1 2 mph 1010.2mb 47f
3:48am 1 2 mph 1010.2mb 47f
3:42am  -  1 mph 1010.3mb 47f
3:36am  -  1 mph 1010.3mb 47f
3:30am  -  0 mph 1010.4mb 47f
3:24am  -  0 mph 1010.5mb 47f
3:18am  -  1 mph 1010.5mb 47f
3:12am 1 2 mph 1010.5mb 47f
3:06am 2 2 mph 1010.4mb 47f
3:00am 2 2 mph 1010.3mb 47f
2:54am 2 2 mph 1010.3mb 47f
2:48am  -  0 mph 1010.3mb 47f
2:42am  -  0 mph 1010.4mb 47f
2:36am  -  0 mph 1010.3mb 47f
2:30am  -  0 mph 1010.4mb 47f
2:24am  -  0 mph 1010.4mb 47f
2:18am  -  2 mph 1010.3mb 47f
2:12am 2 3 mph 1010.4mb 47f
2:06am 2 3 mph 1010.4mb 47f
2:00am 1 2 mph 1010.4mb 47f
1:54am  -  3 mph 1010.4mb 47f
1:48am 3 5 mph 1010.4mb -
1:42am 3 6 mph 1010.4mb -
1:36am 3 6 mph 1010.4mb -
1:30am 5 6 mph 1010.5mb 49f
1:24am 5 8 mph 1010.5mb 49f
1:18am 6 8 mph 1010.5mb 49f
1:12am 6 8 mph 1010.5mb 49f
1:06am 6 7 mph 1010.5mb 48f
1:00am 5 7 mph 1010.5mb 48f
12:54am 5 7 mph 1010.6mb 48f
12:48am 5 5 mph 1010.7mb 48f
12:42am 5 5 mph 1010.7mb 48f
12:36am 2 3 mph 1010.7mb 48f
12:30am 3 5 mph 1010.7mb 48f
12:24am 3 3 mph 1010.7mb 47f
12:18am 3 3 mph 1010.7mb 47f
12:12am  -  0 mph 1010.7mb 47f
12:06am  -  1 mph 1010.7mb 47f
12:00am  -  1 mph 1010.7mb 47f
Mon 05/22 11:54pm  -  0 mph 1010.8mb 47f
11:48pm  -  0 mph 1010.9mb 47f
11:42pm  -  1 mph 1011mb 47f
11:36pm  -  1 mph 1011mb 47f
11:30pm  -  1 mph 1010.9mb 47f
11:24pm 1 1 mph 1010.9mb 47f
11:18pm 1 1 mph 1010.7mb 47f
11:12pm 2 5 mph 1010.7mb 47f
11:06pm 3 5 mph 1010.9mb 48f
11:00pm 2 6 mph 1010.8mb 47f
10:54pm 5 7 mph 1010.7mb 47f
10:48pm 5 7 mph 1010.7mb 48f
10:42pm 3 7 mph 1010.8mb 48f
10:36pm 3 6 mph 1011mb 48f
10:30pm 5 6 mph 1011.1mb 47f
10:24pm 5 6 mph 1011mb 47f
10:18pm 3 6 mph 1011mb 47f
10:12pm 1 3 mph 1011mb 47f
10:06pm 2 2 mph 1011mb 47f
10:00pm 2 2 mph 1011mb 47f
9:54pm  -  1 mph 1011mb 47f
9:48pm  -  1 mph 1011mb 47f
9:42pm  -  1 mph 1011mb 47f
9:36pm  -  1 mph 1011.1mb 47f
9:30pm 2 2 mph 1011.1mb 47f
9:24pm 2 2 mph 1011.1mb 47f
9:18pm  -  1 mph 1011.1mb 47f
9:12pm  -  1 mph 1011.2mb 47f
9:06pm  -  2 mph 1011.1mb 47f
9:00pm 1 2 mph 1011.1mb 47f
8:54pm  -  1 mph 1011mb 47f
8:48pm  -  2 mph 1010.8mb 47f
8:42pm  -  2 mph 1010.9mb 48f
8:36pm  -  2 mph 1011mb 49f
8:30pm 1 2 mph 1010.9mb 49f
8:24pm 2 3 mph 1010.9mb 49f
8:18pm 1 5 mph 1011.1mb 49f